sensor_id;sensor_type;location;lat;lon;timestamp;temperature;humidity
7129;DHT22;3606;52.930;8.644;2023-04-30T00:01:27;3.50;99.90
7129;DHT22;3606;52.930;8.644;2023-04-30T00:03:54;3.40;99.90
7129;DHT22;3606;52.930;8.644;2023-04-30T00:06:20;3.30;99.90
7129;DHT22;3606;52.930;8.644;2023-04-30T00:08:45;3.30;99.90
7129;DHT22;3606;52.930;8.644;2023-04-30T00:11:11;3.20;99.90
7129;DHT22;3606;52.930;8.644;2023-04-30T00:13:36;3.20;99.90
7129;DHT22;3606;52.930;8.644;2023-04-30T00:16:02;3.20;99.90
7129;DHT22;3606;52.930;8.644;2023-04-30T00:18:28;3.20;99.90
7129;DHT22;3606;52.930;8.644;2023-04-30T00:20:53;3.10;99.90
7129;DHT22;3606;52.930;8.644;2023-04-30T00:23:19;3.10;99.90
7129;DHT22;3606;52.930;8.644;2023-04-30T00:25:44;3.00;99.90
7129;DHT22;3606;52.930;8.644;2023-04-30T00:28:10;3.00;99.90
7129;DHT22;3606;52.930;8.644;2023-04-30T00:30:35;3.00;99.90
7129;DHT22;3606;52.930;8.644;2023-04-30T00:33:01;3.00;99.90
7129;DHT22;3606;52.930;8.644;2023-04-30T00:35:27;2.90;99.90
7129;DHT22;3606;52.930;8.644;2023-04-30T00:37:52;2.90;99.90
7129;DHT22;3606;52.930;8.644;2023-04-30T00:40:19;2.90;99.90
7129;DHT22;3606;52.930;8.644;2023-04-30T00:42:44;2.90;99.90
7129;DHT22;3606;52.930;8.644;2023-04-30T00:45:10;2.80;99.90
7129;DHT22;3606;52.930;8.644;2023-04-30T00:47:36;2.80;99.90
7129;DHT22;3606;52.930;8.644;2023-04-30T00:50:01;2.80;99.90
7129;DHT22;3606;52.930;8.644;2023-04-30T00:52:28;2.80;99.90
7129;DHT22;3606;52.930;8.644;2023-04-30T00:54:54;2.80;99.90
7129;DHT22;3606;52.930;8.644;2023-04-30T00:57:20;2.80;99.90
7129;DHT22;3606;52.930;8.644;2023-04-30T00:59:47;2.70;99.90
7129;DHT22;3606;52.930;8.644;2023-04-30T01:02:13;2.70;99.90
7129;DHT22;3606;52.930;8.644;2023-04-30T01:04:39;2.70;99.90
7129;DHT22;3606;52.930;8.644;2023-04-30T01:07:05;2.60;99.90
7129;DHT22;3606;52.930;8.644;2023-04-30T01:09:31;2.60;99.90
7129;DHT22;3606;52.930;8.644;2023-04-30T01:12:28;2.60;99.90
7129;DHT22;3606;52.930;8.644;2023-04-30T01:20:23;2.50;99.90
7129;DHT22;3606;52.930;8.644;2023-04-30T01:22:52;2.50;99.90
7129;DHT22;3606;52.930;8.644;2023-04-30T01:28:07;2.40;99.90
7129;DHT22;3606;52.930;8.644;2023-04-30T01:30:34;2.40;99.90
7129;DHT22;3606;52.930;8.644;2023-04-30T01:33:00;2.40;99.90
7129;DHT22;3606;52.930;8.644;2023-04-30T01:38:43;2.50;99.90
7129;DHT22;3606;52.930;8.644;2023-04-30T01:44:23;2.50;99.90
7129;DHT22;3606;52.930;8.644;2023-04-30T01:46:57;2.50;99.90
7129;DHT22;3606;52.930;8.644;2023-04-30T01:55:10;2.30;99.90
7129;DHT22;3606;52.930;8.644;2023-04-30T01:57:45;2.20;99.90
7129;DHT22;3606;52.930;8.644;2023-04-30T02:00:15;2.20;99.90
7129;DHT22;3606;52.930;8.644;2023-04-30T02:02:45;2.10;99.90
7129;DHT22;3606;52.930;8.644;2023-04-30T02:05:10;2.20;99.90
7129;DHT22;3606;52.930;8.644;2023-04-30T02:07:38;2.10;99.90
7129;DHT22;3606;52.930;8.644;2023-04-30T02:10:10;2.10;99.90
7129;DHT22;3606;52.930;8.644;2023-04-30T02:12:53;2.00;99.90
7129;DHT22;3606;52.930;8.644;2023-04-30T02:15:19;1.90;99.90
7129;DHT22;3606;52.930;8.644;2023-04-30T02:17:45;2.00;99.90
7129;DHT22;3606;52.930;8.644;2023-04-30T02:20:10;2.00;99.90
7129;DHT22;3606;52.930;8.644;2023-04-30T02:22:36;2.10;99.90
7129;DHT22;3606;52.930;8.644;2023-04-30T02:25:02;2.10;99.90
7129;DHT22;3606;52.930;8.644;2023-04-30T02:27:30;2.10;99.90
7129;DHT22;3606;52.930;8.644;2023-04-30T02:29:56;2.00;99.90
7129;DHT22;3606;52.930;8.644;2023-04-30T02:32:22;2.00;99.90
7129;DHT22;3606;52.930;8.644;2023-04-30T02:34:47;1.90;99.90
7129;DHT22;3606;52.930;8.644;2023-04-30T02:37:13;1.80;99.90
7129;DHT22;3606;52.930;8.644;2023-04-30T02:39:39;1.80;99.90
7129;DHT22;3606;52.930;8.644;2023-04-30T02:42:05;1.70;99.90
7129;DHT22;3606;52.930;8.644;2023-04-30T02:44:31;1.70;99.90
7129;DHT22;3606;52.930;8.644;2023-04-30T02:46:57;1.70;99.90
7129;DHT22;3606;52.930;8.644;2023-04-30T02:49:23;1.70;99.90
7129;DHT22;3606;52.930;8.644;2023-04-30T02:51:49;1.70;99.90
7129;DHT22;3606;52.930;8.644;2023-04-30T02:54:14;1.70;99.90
7129;DHT22;3606;52.930;8.644;2023-04-30T02:56:40;1.70;99.90
7129;DHT22;3606;52.930;8.644;2023-04-30T02:59:06;1.60;99.90
7129;DHT22;3606;52.930;8.644;2023-04-30T03:01:32;1.60;99.90
7129;DHT22;3606;52.930;8.644;2023-04-30T03:03:58;1.60;99.90
7129;DHT22;3606;52.930;8.644;2023-04-30T03:06:23;1.60;99.90
7129;DHT22;3606;52.930;8.644;2023-04-30T03:08:49;1.50;99.90
7129;DHT22;3606;52.930;8.644;2023-04-30T03:11:15;1.50;99.90
7129;DHT22;3606;52.930;8.644;2023-04-30T03:13:41;1.50;99.90
7129;DHT22;3606;52.930;8.644;2023-04-30T03:16:07;1.50;99.90
7129;DHT22;3606;52.930;8.644;2023-04-30T03:18:32;1.50;99.90
7129;DHT22;3606;52.930;8.644;2023-04-30T03:20:58;1.50;99.90
7129;DHT22;3606;52.930;8.644;2023-04-30T03:23:26;1.50;99.90
7129;DHT22;3606;52.930;8.644;2023-04-30T03:25:52;1.50;99.90
7129;DHT22;3606;52.930;8.644;2023-04-30T03:28:17;1.40;99.90
7129;DHT22;3606;52.930;8.644;2023-04-30T03:30:43;1.40;99.90
7129;DHT22;3606;52.930;8.644;2023-04-30T03:33:09;1.40;99.90
7129;DHT22;3606;52.930;8.644;2023-04-30T03:35:34;1.40;99.90
7129;DHT22;3606;52.930;8.644;2023-04-30T03:38:01;1.40;99.90
7129;DHT22;3606;52.930;8.644;2023-04-30T03:40:26;1.30;99.90
7129;DHT22;3606;52.930;8.644;2023-04-30T03:42:52;1.30;99.90
7129;DHT22;3606;52.930;8.644;2023-04-30T03:45:18;1.30;99.90
7129;DHT22;3606;52.930;8.644;2023-04-30T03:47:43;1.30;99.90
7129;DHT22;3606;52.930;8.644;2023-04-30T03:50:09;1.30;99.90
7129;DHT22;3606;52.930;8.644;2023-04-30T03:52:35;1.30;99.90
7129;DHT22;3606;52.930;8.644;2023-04-30T03:55:04;1.30;99.90
7129;DHT22;3606;52.930;8.644;2023-04-30T03:57:31;1.30;99.90
7129;DHT22;3606;52.930;8.644;2023-04-30T03:59:56;1.30;99.90
7129;DHT22;3606;52.930;8.644;2023-04-30T04:02:22;1.30;99.90
7129;DHT22;3606;52.930;8.644;2023-04-30T04:04:47;1.30;99.90
7129;DHT22;3606;52.930;8.644;2023-04-30T04:07:14;1.30;99.90
7129;DHT22;3606;52.930;8.644;2023-04-30T04:09:40;1.30;99.90
7129;DHT22;3606;52.930;8.644;2023-04-30T04:12:06;1.30;99.90
7129;DHT22;3606;52.930;8.644;2023-04-30T04:14:31;1.30;99.90
7129;DHT22;3606;52.930;8.644;2023-04-30T04:16:57;1.30;99.90
7129;DHT22;3606;52.930;8.644;2023-04-30T04:19:25;1.30;99.90
7129;DHT22;3606;52.930;8.644;2023-04-30T04:21:50;1.30;99.90
7129;DHT22;3606;52.930;8.644;2023-04-30T04:24:16;1.30;99.90
7129;DHT22;3606;52.930;8.644;2023-04-30T04:26:41;1.40;99.90
7129;DHT22;3606;52.930;8.644;2023-04-30T04:29:07;1.40;99.90
7129;DHT22;3606;52.930;8.644;2023-04-30T04:31:34;1.40;99.90
7129;DHT22;3606;52.930;8.644;2023-04-30T04:34:01;1.40;99.90
7129;DHT22;3606;52.930;8.644;2023-04-30T04:36:27;1.40;99.90
7129;DHT22;3606;52.930;8.644;2023-04-30T04:38:53;1.40;99.90
7129;DHT22;3606;52.930;8.644;2023-04-30T04:41:20;1.50;99.90
7129;DHT22;3606;52.930;8.644;2023-04-30T04:43:46;1.50;99.90
7129;DHT22;3606;52.930;8.644;2023-04-30T04:46:11;1.60;99.90
7129;DHT22;3606;52.930;8.644;2023-04-30T04:48:39;1.60;99.90
7129;DHT22;3606;52.930;8.644;2023-04-30T04:51:05;1.60;99.90
7129;DHT22;3606;52.930;8.644;2023-04-30T04:53:30;1.70;99.90
7129;DHT22;3606;52.930;8.644;2023-04-30T04:55:56;1.80;99.90
7129;DHT22;3606;52.930;8.644;2023-04-30T04:58:21;1.90;99.90
7129;DHT22;3606;52.930;8.644;2023-04-30T05:00:47;1.90;99.90
7129;DHT22;3606;52.930;8.644;2023-04-30T05:03:12;2.00;99.90
7129;DHT22;3606;52.930;8.644;2023-04-30T05:05:38;2.00;99.90
7129;DHT22;3606;52.930;8.644;2023-04-30T05:08:04;2.10;99.90
7129;DHT22;3606;52.930;8.644;2023-04-30T05:10:29;2.20;99.90
7129;DHT22;3606;52.930;8.644;2023-04-30T05:12:55;2.30;99.90
7129;DHT22;3606;52.930;8.644;2023-04-30T05:15:21;2.50;99.90
7129;DHT22;3606;52.930;8.644;2023-04-30T05:17:46;2.60;99.90
7129;DHT22;3606;52.930;8.644;2023-04-30T05:20:12;2.80;99.90
7129;DHT22;3606;52.930;8.644;2023-04-30T05:22:38;3.10;99.90
7129;DHT22;3606;52.930;8.644;2023-04-30T05:25:03;3.30;99.90
7129;DHT22;3606;52.930;8.644;2023-04-30T05:27:30;3.60;99.90
7129;DHT22;3606;52.930;8.644;2023-04-30T05:29:55;3.90;99.90
7129;DHT22;3606;52.930;8.644;2023-04-30T05:32:21;4.30;99.90
7129;DHT22;3606;52.930;8.644;2023-04-30T05:34:47;4.70;99.90
7129;DHT22;3606;52.930;8.644;2023-04-30T05:37:13;5.10;99.90
7129;DHT22;3606;52.930;8.644;2023-04-30T05:39:38;5.50;99.90
7129;DHT22;3606;52.930;8.644;2023-04-30T05:42:04;5.70;99.90
7129;DHT22;3606;52.930;8.644;2023-04-30T05:44:30;6.10;99.90
7129;DHT22;3606;52.930;8.644;2023-04-30T05:46:56;6.40;99.90
7129;DHT22;3606;52.930;8.644;2023-04-30T05:49:21;6.60;99.90
7129;DHT22;3606;52.930;8.644;2023-04-30T05:51:47;6.90;99.90
7129;DHT22;3606;52.930;8.644;2023-04-30T05:54:12;7.00;99.90
7129;DHT22;3606;52.930;8.644;2023-04-30T05:56:38;7.10;99.90
7129;DHT22;3606;52.930;8.644;2023-04-30T05:59:04;7.40;99.90
7129;DHT22;3606;52.930;8.644;2023-04-30T06:01:29;7.60;99.90
7129;DHT22;3606;52.930;8.644;2023-04-30T06:03:55;7.80;99.90
7129;DHT22;3606;52.930;8.644;2023-04-30T06:06:21;8.10;99.90
7129;DHT22;3606;52.930;8.644;2023-04-30T06:08:46;8.30;99.90
7129;DHT22;3606;52.930;8.644;2023-04-30T06:11:12;8.60;99.90
7129;DHT22;3606;52.930;8.644;2023-04-30T06:13:38;8.90;99.90
7129;DHT22;3606;52.930;8.644;2023-04-30T06:16:04;9.20;99.90
7129;DHT22;3606;52.930;8.644;2023-04-30T06:18:30;9.40;99.90
7129;DHT22;3606;52.930;8.644;2023-04-30T06:20:56;9.60;99.90
7129;DHT22;3606;52.930;8.644;2023-04-30T06:23:21;9.60;42.90
7129;DHT22;3606;52.930;8.644;2023-04-30T06:25:47;9.70;88.40
7129;DHT22;3606;52.930;8.644;2023-04-30T06:28:13;9.90;1.00
7129;DHT22;3606;52.930;8.644;2023-04-30T06:30:39;10.20;99.90
7129;DHT22;3606;52.930;8.644;2023-04-30T06:33:05;10.50;1.00
7129;DHT22;3606;52.930;8.644;2023-04-30T06:35:31;10.60;1.00
7129;DHT22;3606;52.930;8.644;2023-04-30T06:37:56;11.10;1.00
7129;DHT22;3606;52.930;8.644;2023-04-30T06:40:22;11.40;99.90
7129;DHT22;3606;52.930;8.644;2023-04-30T06:42:48;11.80;99.90
7129;DHT22;3606;52.930;8.644;2023-04-30T06:45:13;12.10;99.90
7129;DHT22;3606;52.930;8.644;2023-04-30T06:47:42;12.10;99.90
7129;DHT22;3606;52.930;8.644;2023-04-30T06:50:09;12.30;99.90
7129;DHT22;3606;52.930;8.644;2023-04-30T06:52:34;12.30;99.90
7129;DHT22;3606;52.930;8.644;2023-04-30T06:55:00;11.90;99.90
7129;DHT22;3606;52.930;8.644;2023-04-30T06:57:26;11.90;99.90
7129;DHT22;3606;52.930;8.644;2023-04-30T06:59:52;12.20;99.90
7129;DHT22;3606;52.930;8.644;2023-04-30T07:02:18;12.60;99.90
7129;DHT22;3606;52.930;8.644;2023-04-30T07:04:44;13.20;15.70
7129;DHT22;3606;52.930;8.644;2023-04-30T07:07:09;13.30;1.00
7129;DHT22;3606;52.930;8.644;2023-04-30T07:09:35;13.30;1.00
7129;DHT22;3606;52.930;8.644;2023-04-30T07:12:02;13.60;1.00
7129;DHT22;3606;52.930;8.644;2023-04-30T07:14:28;13.90;1.00
7129;DHT22;3606;52.930;8.644;2023-04-30T07:16:53;13.70;99.90
7129;DHT22;3606;52.930;8.644;2023-04-30T07:19:19;14.10;99.90
7129;DHT22;3606;52.930;8.644;2023-04-30T07:21:44;14.80;99.90
7129;DHT22;3606;52.930;8.644;2023-04-30T07:24:10;14.50;99.90
7129;DHT22;3606;52.930;8.644;2023-04-30T07:26:36;14.90;99.90
7129;DHT22;3606;52.930;8.644;2023-04-30T07:29:02;15.20;99.90
7129;DHT22;3606;52.930;8.644;2023-04-30T07:31:28;15.40;99.90
7129;DHT22;3606;52.930;8.644;2023-04-30T07:33:54;15.90;99.90
7129;DHT22;3606;52.930;8.644;2023-04-30T07:36:20;16.20;99.90
7129;DHT22;3606;52.930;8.644;2023-04-30T07:38:46;16.00;99.90
7129;DHT22;3606;52.930;8.644;2023-04-30T07:41:12;14.90;99.90
7129;DHT22;3606;52.930;8.644;2023-04-30T07:43:38;14.30;99.90
7129;DHT22;3606;52.930;8.644;2023-04-30T07:46:03;14.20;99.90
7129;DHT22;3606;52.930;8.644;2023-04-30T07:48:29;14.70;99.90
7129;DHT22;3606;52.930;8.644;2023-04-30T07:50:55;15.50;97.40
7129;DHT22;3606;52.930;8.644;2023-04-30T07:53:22;16.00;99.90
7129;DHT22;3606;52.930;8.644;2023-04-30T07:55:47;16.30;99.90
7129;DHT22;3606;52.930;8.644;2023-04-30T07:58:13;16.90;99.90
7129;DHT22;3606;52.930;8.644;2023-04-30T08:00:38;17.00;99.90
7129;DHT22;3606;52.930;8.644;2023-04-30T08:03:04;17.10;99.90
7129;DHT22;3606;52.930;8.644;2023-04-30T08:05:29;17.20;99.90
7129;DHT22;3606;52.930;8.644;2023-04-30T08:07:55;16.80;99.90
7129;DHT22;3606;52.930;8.644;2023-04-30T08:10:21;16.80;99.90
7129;DHT22;3606;52.930;8.644;2023-04-30T08:12:46;17.00;99.90
7129;DHT22;3606;52.930;8.644;2023-04-30T08:15:12;17.30;99.90
7129;DHT22;3606;52.930;8.644;2023-04-30T08:17:37;17.80;99.90
7129;DHT22;3606;52.930;8.644;2023-04-30T08:20:03;18.20;99.90
7129;DHT22;3606;52.930;8.644;2023-04-30T08:22:29;18.30;99.90
7129;DHT22;3606;52.930;8.644;2023-04-30T08:24:55;18.20;99.90
7129;DHT22;3606;52.930;8.644;2023-04-30T08:27:21;18.10;99.90
7129;DHT22;3606;52.930;8.644;2023-04-30T08:29:47;17.70;99.90
7129;DHT22;3606;52.930;8.644;2023-04-30T08:32:13;17.90;99.90
7129;DHT22;3606;52.930;8.644;2023-04-30T08:34:38;18.40;99.90
7129;DHT22;3606;52.930;8.644;2023-04-30T08:37:08;18.70;99.90
7129;DHT22;3606;52.930;8.644;2023-04-30T08:39:33;19.20;99.90
7129;DHT22;3606;52.930;8.644;2023-04-30T08:42:01;19.60;99.90
7129;DHT22;3606;52.930;8.644;2023-04-30T08:44:28;19.30;99.90
7129;DHT22;3606;52.930;8.644;2023-04-30T08:46:55;18.80;99.90
7129;DHT22;3606;52.930;8.644;2023-04-30T08:49:23;18.60;99.90
7129;DHT22;3606;52.930;8.644;2023-04-30T08:51:50;18.80;99.90
7129;DHT22;3606;52.930;8.644;2023-04-30T08:54:17;18.80;99.90
7129;DHT22;3606;52.930;8.644;2023-04-30T08:56:44;19.10;99.90
7129;DHT22;3606;52.930;8.644;2023-04-30T08:59:11;19.10;99.90
7129;DHT22;3606;52.930;8.644;2023-04-30T09:01:37;19.70;99.90
7129;DHT22;3606;52.930;8.644;2023-04-30T09:04:03;19.80;99.90
7129;DHT22;3606;52.930;8.644;2023-04-30T09:06:29;19.30;99.90
7129;DHT22;3606;52.930;8.644;2023-04-30T09:08:56;19.60;99.90
7129;DHT22;3606;52.930;8.644;2023-04-30T09:11:29;20.10;99.90
7129;DHT22;3606;52.930;8.644;2023-04-30T09:13:59;20.50;99.90
7129;DHT22;3606;52.930;8.644;2023-04-30T09:16:26;20.20;99.90
7129;DHT22;3606;52.930;8.644;2023-04-30T09:18:52;20.40;99.90
7129;DHT22;3606;52.930;8.644;2023-04-30T09:21:35;21.00;99.90
7129;DHT22;3606;52.930;8.644;2023-04-30T09:24:02;21.60;99.90
7129;DHT22;3606;52.930;8.644;2023-04-30T09:26:33;22.30;99.90
7129;DHT22;3606;52.930;8.644;2023-04-30T09:28:59;21.40;99.90
7129;DHT22;3606;52.930;8.644;2023-04-30T09:31:26;21.20;99.90
7129;DHT22;3606;52.930;8.644;2023-04-30T09:33:52;21.50;99.90
7129;DHT22;3606;52.930;8.644;2023-04-30T09:36:19;21.90;99.90
7129;DHT22;3606;52.930;8.644;2023-04-30T09:38:45;21.70;99.90
7129;DHT22;3606;52.930;8.644;2023-04-30T09:43:49;22.90;99.90
7129;DHT22;3606;52.930;8.644;2023-04-30T09:46:18;23.10;99.90
7129;DHT22;3606;52.930;8.644;2023-04-30T09:48:43;23.20;99.90
7129;DHT22;3606;52.930;8.644;2023-04-30T09:51:09;23.00;99.90
7129;DHT22;3606;52.930;8.644;2023-04-30T09:53:41;23.00;99.90
7129;DHT22;3606;52.930;8.644;2023-04-30T09:56:07;22.30;99.90
7129;DHT22;3606;52.930;8.644;2023-04-30T09:58:37;21.40;99.90
7129;DHT22;3606;52.930;8.644;2023-04-30T10:01:07;20.90;99.90
7129;DHT22;3606;52.930;8.644;2023-04-30T10:03:38;19.80;99.90
7129;DHT22;3606;52.930;8.644;2023-04-30T10:06:05;19.90;99.90
7129;DHT22;3606;52.930;8.644;2023-04-30T10:08:35;20.00;99.90
7129;DHT22;3606;52.930;8.644;2023-04-30T10:11:05;19.90;99.90
7129;DHT22;3606;52.930;8.644;2023-04-30T10:13:37;20.00;99.90
7129;DHT22;3606;52.930;8.644;2023-04-30T10:16:08;21.20;99.90
7129;DHT22;3606;52.930;8.644;2023-04-30T10:18:38;22.30;99.90
7129;DHT22;3606;52.930;8.644;2023-04-30T10:21:06;22.50;99.90
7129;DHT22;3606;52.930;8.644;2023-04-30T10:23:37;22.10;99.90
7129;DHT22;3606;52.930;8.644;2023-04-30T10:26:04;22.80;99.90
7129;DHT22;3606;52.930;8.644;2023-04-30T10:28:31;22.80;99.90
7129;DHT22;3606;52.930;8.644;2023-04-30T10:30:57;23.30;99.90
7129;DHT22;3606;52.930;8.644;2023-04-30T10:33:25;23.30;99.90
7129;DHT22;3606;52.930;8.644;2023-04-30T10:35:59;22.60;99.90
7129;DHT22;3606;52.930;8.644;2023-04-30T10:38:28;22.80;99.90
7129;DHT22;3606;52.930;8.644;2023-04-30T10:40:56;23.00;99.90
7129;DHT22;3606;52.930;8.644;2023-04-30T10:43:26;22.80;99.90
7129;DHT22;3606;52.930;8.644;2023-04-30T10:45:56;22.50;99.90
7129;DHT22;3606;52.930;8.644;2023-04-30T10:48:23;22.30;99.90
7129;DHT22;3606;52.930;8.644;2023-04-30T10:51:00;23.20;99.90
7129;DHT22;3606;52.930;8.644;2023-04-30T10:53:29;23.20;99.90
7129;DHT22;3606;52.930;8.644;2023-04-30T10:56:00;23.40;99.90
7129;DHT22;3606;52.930;8.644;2023-04-30T10:58:35;23.90;99.90
7129;DHT22;3606;52.930;8.644;2023-04-30T11:01:11;24.40;99.90
7129;DHT22;3606;52.930;8.644;2023-04-30T11:03:40;24.20;99.90
7129;DHT22;3606;52.930;8.644;2023-04-30T11:06:12;23.20;99.90
7129;DHT22;3606;52.930;8.644;2023-04-30T11:08:38;22.70;99.90
7129;DHT22;3606;52.930;8.644;2023-04-30T11:11:08;23.00;99.90
7129;DHT22;3606;52.930;8.644;2023-04-30T11:13:42;22.40;99.90
7129;DHT22;3606;52.930;8.644;2023-04-30T11:16:08;22.30;99.90
7129;DHT22;3606;52.930;8.644;2023-04-30T11:18:34;22.80;99.90
7129;DHT22;3606;52.930;8.644;2023-04-30T11:21:07;22.80;99.90
7129;DHT22;3606;52.930;8.644;2023-04-30T11:23:33;22.60;99.90
7129;DHT22;3606;52.930;8.644;2023-04-30T11:25:59;22.00;99.90
7129;DHT22;3606;52.930;8.644;2023-04-30T11:28:27;21.70;99.90
7129;DHT22;3606;52.930;8.644;2023-04-30T11:30:57;21.40;99.90
7129;DHT22;3606;52.930;8.644;2023-04-30T11:33:28;21.20;99.90
7129;DHT22;3606;52.930;8.644;2023-04-30T11:35:54;20.80;99.90
7129;DHT22;3606;52.930;8.644;2023-04-30T11:38:25;21.10;99.90
7129;DHT22;3606;52.930;8.644;2023-04-30T11:40:51;21.20;99.90
7129;DHT22;3606;52.930;8.644;2023-04-30T11:43:25;20.90;99.90
7129;DHT22;3606;52.930;8.644;2023-04-30T11:46:17;20.10;99.90
7129;DHT22;3606;52.930;8.644;2023-04-30T11:48:44;19.70;99.90
7129;DHT22;3606;52.930;8.644;2023-04-30T11:51:17;19.70;99.90
7129;DHT22;3606;52.930;8.644;2023-04-30T11:53:45;19.90;99.90
7129;DHT22;3606;52.930;8.644;2023-04-30T11:56:11;20.20;99.90
7129;DHT22;3606;52.930;8.644;2023-04-30T11:58:37;20.20;99.90
7129;DHT22;3606;52.930;8.644;2023-04-30T12:01:06;19.70;99.90
7129;DHT22;3606;52.930;8.644;2023-04-30T12:03:39;19.10;99.90
7129;DHT22;3606;52.930;8.644;2023-04-30T12:06:05;19.20;99.90
7129;DHT22;3606;52.930;8.644;2023-04-30T12:08:31;19.60;99.90
7129;DHT22;3606;52.930;8.644;2023-04-30T12:10:56;19.50;99.90
7129;DHT22;3606;52.930;8.644;2023-04-30T12:13:22;19.60;99.90
7129;DHT22;3606;52.930;8.644;2023-04-30T12:15:58;19.70;99.90
7129;DHT22;3606;52.930;8.644;2023-04-30T12:18:24;19.70;99.90
7129;DHT22;3606;52.930;8.644;2023-04-30T12:20:51;19.60;99.90
7129;DHT22;3606;52.930;8.644;2023-04-30T12:23:17;19.30;99.90
7129;DHT22;3606;52.930;8.644;2023-04-30T12:25:43;19.70;99.90
7129;DHT22;3606;52.930;8.644;2023-04-30T12:28:09;19.50;99.90
7129;DHT22;3606;52.930;8.644;2023-04-30T12:30:34;19.30;99.90
7129;DHT22;3606;52.930;8.644;2023-04-30T12:33:00;19.60;99.90
7129;DHT22;3606;52.930;8.644;2023-04-30T12:35:29;19.80;99.90
7129;DHT22;3606;52.930;8.644;2023-04-30T12:38:16;20.20;99.90
7129;DHT22;3606;52.930;8.644;2023-04-30T12:40:46;20.40;99.90
7129;DHT22;3606;52.930;8.644;2023-04-30T12:43:14;20.50;99.90
7129;DHT22;3606;52.930;8.644;2023-04-30T12:45:51;20.80;99.90
7129;DHT22;3606;52.930;8.644;2023-04-30T12:48:26;21.20;99.90
7129;DHT22;3606;52.930;8.644;2023-04-30T12:50:58;21.80;99.90
7129;DHT22;3606;52.930;8.644;2023-04-30T12:53:26;22.70;99.90
7129;DHT22;3606;52.930;8.644;2023-04-30T12:58:34;23.90;99.90
7129;DHT22;3606;52.930;8.644;2023-04-30T13:01:00;23.90;99.90
7129;DHT22;3606;52.930;8.644;2023-04-30T13:03:26;23.50;99.90
7129;DHT22;3606;52.930;8.644;2023-04-30T13:05:51;24.60;99.90
7129;DHT22;3606;52.930;8.644;2023-04-30T13:08:18;24.90;99.90
7129;DHT22;3606;52.930;8.644;2023-04-30T13:10:47;25.20;99.90
7129;DHT22;3606;52.930;8.644;2023-04-30T13:13:14;25.60;99.90
7129;DHT22;3606;52.930;8.644;2023-04-30T13:15:41;25.80;99.90
7129;DHT22;3606;52.930;8.644;2023-04-30T13:18:07;25.50;99.90
7129;DHT22;3606;52.930;8.644;2023-04-30T13:20:34;26.00;99.90
7129;DHT22;3606;52.930;8.644;2023-04-30T13:23:00;26.80;99.90
7129;DHT22;3606;52.930;8.644;2023-04-30T13:25:26;26.10;99.90
7129;DHT22;3606;52.930;8.644;2023-04-30T13:27:51;25.80;99.90
7129;DHT22;3606;52.930;8.644;2023-04-30T13:30:17;25.80;99.90
7129;DHT22;3606;52.930;8.644;2023-04-30T13:32:42;25.90;99.90
7129;DHT22;3606;52.930;8.644;2023-04-30T13:35:09;25.20;99.90
7129;DHT22;3606;52.930;8.644;2023-04-30T13:37:35;24.80;99.90
7129;DHT22;3606;52.930;8.644;2023-04-30T13:40:01;24.30;99.90
7129;DHT22;3606;52.930;8.644;2023-04-30T13:42:28;24.10;99.90
7129;DHT22;3606;52.930;8.644;2023-04-30T13:44:54;23.70;99.90
7129;DHT22;3606;52.930;8.644;2023-04-30T13:47:20;24.40;99.90
7129;DHT22;3606;52.930;8.644;2023-04-30T13:49:46;25.10;99.90
7129;DHT22;3606;52.930;8.644;2023-04-30T13:52:11;24.70;99.90
7129;DHT22;3606;52.930;8.644;2023-04-30T13:54:37;24.50;99.90
7129;DHT22;3606;52.930;8.644;2023-04-30T13:57:03;24.40;99.90
7129;DHT22;3606;52.930;8.644;2023-04-30T13:59:30;24.20;99.90
7129;DHT22;3606;52.930;8.644;2023-04-30T14:01:56;24.20;99.90
7129;DHT22;3606;52.930;8.644;2023-04-30T14:04:21;24.30;99.90
7129;DHT22;3606;52.930;8.644;2023-04-30T14:06:48;24.10;99.90
7129;DHT22;3606;52.930;8.644;2023-04-30T14:09:13;23.50;99.90
7129;DHT22;3606;52.930;8.644;2023-04-30T14:11:40;24.50;99.90
7129;DHT22;3606;52.930;8.644;2023-04-30T14:14:07;24.70;99.90
7129;DHT22;3606;52.930;8.644;2023-04-30T14:16:33;24.70;99.90
7129;DHT22;3606;52.930;8.644;2023-04-30T14:18:59;24.50;99.90
7129;DHT22;3606;52.930;8.644;2023-04-30T14:21:24;24.00;99.90
7129;DHT22;3606;52.930;8.644;2023-04-30T14:23:51;24.00;99.90
7129;DHT22;3606;52.930;8.644;2023-04-30T14:26:17;24.20;99.90
7129;DHT22;3606;52.930;8.644;2023-04-30T14:28:43;24.90;99.90
7129;DHT22;3606;52.930;8.644;2023-04-30T14:31:08;24.30;99.90
7129;DHT22;3606;52.930;8.644;2023-04-30T14:33:35;23.20;99.90
7129;DHT22;3606;52.930;8.644;2023-04-30T14:36:00;23.10;99.90
7129;DHT22;3606;52.930;8.644;2023-04-30T14:38:26;23.70;99.90
7129;DHT22;3606;52.930;8.644;2023-04-30T14:40:52;23.50;99.90
7129;DHT22;3606;52.930;8.644;2023-04-30T14:43:18;23.30;99.90
7129;DHT22;3606;52.930;8.644;2023-04-30T14:45:46;23.80;99.90
7129;DHT22;3606;52.930;8.644;2023-04-30T14:48:34;23.60;99.90
7129;DHT22;3606;52.930;8.644;2023-04-30T14:51:00;22.70;99.90
7129;DHT22;3606;52.930;8.644;2023-04-30T14:53:26;22.10;99.90
7129;DHT22;3606;52.930;8.644;2023-04-30T14:55:51;22.00;99.90
7129;DHT22;3606;52.930;8.644;2023-04-30T14:58:17;22.00;99.90
7129;DHT22;3606;52.930;8.644;2023-04-30T15:00:44;21.70;99.90
7129;DHT22;3606;52.930;8.644;2023-04-30T15:03:11;21.90;99.90
7129;DHT22;3606;52.930;8.644;2023-04-30T15:05:36;22.50;99.90
7129;DHT22;3606;52.930;8.644;2023-04-30T15:08:02;23.00;99.90
7129;DHT22;3606;52.930;8.644;2023-04-30T15:10:27;23.00;99.90
7129;DHT22;3606;52.930;8.644;2023-04-30T15:12:53;22.70;99.90
7129;DHT22;3606;52.930;8.644;2023-04-30T15:15:18;22.40;99.90
7129;DHT22;3606;52.930;8.644;2023-04-30T15:17:47;22.10;99.90
7129;DHT22;3606;52.930;8.644;2023-04-30T15:20:12;21.60;99.90
7129;DHT22;3606;52.930;8.644;2023-04-30T15:22:38;21.30;99.90
7129;DHT22;3606;52.930;8.644;2023-04-30T15:25:04;21.30;99.90
7129;DHT22;3606;52.930;8.644;2023-04-30T15:27:30;21.10;99.90
7129;DHT22;3606;52.930;8.644;2023-04-30T15:29:56;21.70;99.90
7129;DHT22;3606;52.930;8.644;2023-04-30T15:32:22;20.60;99.90
7129;DHT22;3606;52.930;8.644;2023-04-30T15:34:48;19.10;99.90
7129;DHT22;3606;52.930;8.644;2023-04-30T15:37:13;18.10;99.90
7129;DHT22;3606;52.930;8.644;2023-04-30T15:39:39;17.00;99.90
7129;DHT22;3606;52.930;8.644;2023-04-30T15:42:05;16.40;99.90
7129;DHT22;3606;52.930;8.644;2023-04-30T15:44:30;16.20;99.90
7129;DHT22;3606;52.930;8.644;2023-04-30T15:46:56;16.00;99.90
7129;DHT22;3606;52.930;8.644;2023-04-30T15:49:21;15.80;99.90
7129;DHT22;3606;52.930;8.644;2023-04-30T15:51:49;15.50;99.90
7129;DHT22;3606;52.930;8.644;2023-04-30T15:54:15;15.40;99.90
7129;DHT22;3606;52.930;8.644;2023-04-30T15:56:40;15.20;99.90
7129;DHT22;3606;52.930;8.644;2023-04-30T15:59:07;15.20;99.90
7129;DHT22;3606;52.930;8.644;2023-04-30T16:01:32;15.20;99.90
7129;DHT22;3606;52.930;8.644;2023-04-30T16:03:59;15.10;99.90
7129;DHT22;3606;52.930;8.644;2023-04-30T16:06:26;15.10;99.90
7129;DHT22;3606;52.930;8.644;2023-04-30T16:08:53;15.10;99.90
7129;DHT22;3606;52.930;8.644;2023-04-30T16:11:20;15.30;99.90
7129;DHT22;3606;52.930;8.644;2023-04-30T16:13:48;15.30;99.90
7129;DHT22;3606;52.930;8.644;2023-04-30T16:16:14;15.30;99.90
7129;DHT22;3606;52.930;8.644;2023-04-30T16:18:40;15.20;99.90
7129;DHT22;3606;52.930;8.644;2023-04-30T16:21:06;15.30;99.90
7129;DHT22;3606;52.930;8.644;2023-04-30T16:23:33;15.20;99.90
7129;DHT22;3606;52.930;8.644;2023-04-30T16:25:59;15.20;99.90
7129;DHT22;3606;52.930;8.644;2023-04-30T16:28:25;15.20;99.90
7129;DHT22;3606;52.930;8.644;2023-04-30T16:30:53;15.00;99.90